sensor_id;sensor_type;location;lat;lon;timestamp;pressure;altitude;pressure_sealevel;temperature;humidity
20077;BME280;12348;42.710;23.378;2022-09-29T00:03:41;94244.66;;;15.94;100.00
20077;BME280;12348;42.710;23.378;2022-09-29T00:06:12;94244.13;;;15.88;100.00
20077;BME280;12348;42.710;23.378;2022-09-29T00:08:39;94253.84;;;15.89;100.00
20077;BME280;12348;42.710;23.378;2022-09-29T00:11:07;94251.03;;;15.86;100.00
20077;BME280;12348;42.710;23.378;2022-09-29T00:13:35;94232.47;;;15.88;100.00
20077;BME280;12348;42.710;23.378;2022-09-29T00:16:03;94229.31;;;15.86;100.00
20077;BME280;12348;42.710;23.378;2022-09-29T00:18:31;94233.94;;;15.85;100.00
20077;BME280;12348;42.710;23.378;2022-09-29T00:20:59;94242.66;;;15.79;100.00
20077;BME280;12348;42.710;23.378;2022-09-29T00:23:27;94249.25;;;15.78;100.00
20077;BME280;12348;42.710;23.378;2022-09-29T00:26:01;94251.59;;;15.79;100.00
20077;BME280;12348;42.710;23.378;2022-09-29T00:28:29;94234.19;;;15.80;100.00
20077;BME280;12348;42.710;23.378;2022-09-29T00:30:58;94244.03;;;15.85;100.00
20077;BME280;12348;42.710;23.378;2022-09-29T00:33:28;94245.16;;;15.84;100.00
20077;BME280;12348;42.710;23.378;2022-09-29T00:35:56;94242.19;;;15.89;100.00
20077;BME280;12348;42.710;23.378;2022-09-29T00:38:26;94244.66;;;15.94;100.00
20077;BME280;12348;42.710;23.378;2022-09-29T00:40:52;94244.91;;;15.89;100.00
20077;BME280;12348;42.710;23.378;2022-09-29T00:43:21;94251.69;;;15.95;100.00
20077;BME280;12348;42.710;23.378;2022-09-29T00:45:50;94234.78;;;16.02;100.00
20077;BME280;12348;42.710;23.378;2022-09-29T00:48:28;94235.03;;;15.96;100.00
20077;BME280;12348;42.710;23.378;2022-09-29T00:50:56;94229.50;;;15.93;100.00
20077;BME280;12348;42.710;23.378;2022-09-29T00:53:25;94226.78;;;15.93;100.00
20077;BME280;12348;42.710;23.378;2022-09-29T00:55:55;94231.19;;;15.97;100.00
20077;BME280;12348;42.710;23.378;2022-09-29T00:58:28;94242.88;;;15.86;100.00
20077;BME280;12348;42.710;23.378;2022-09-29T01:00:56;94245.50;;;15.82;100.00
20077;BME280;12348;42.710;23.378;2022-09-29T01:03:28;94235.19;;;15.88;100.00
20077;BME280;12348;42.710;23.378;2022-09-29T01:05:59;94233.16;;;15.85;100.00
20077;BME280;12348;42.710;23.378;2022-09-29T01:08:31;94228.41;;;15.82;100.00
20077;BME280;12348;42.710;23.378;2022-09-29T01:11:01;94235.31;;;15.79;100.00
20077;BME280;12348;42.710;23.378;2022-09-29T01:13:31;94228.22;;;15.74;100.00
20077;BME280;12348;42.710;23.378;2022-09-29T01:15:58;94231.84;;;15.66;100.00
20077;BME280;12348;42.710;23.378;2022-09-29T01:18:27;94225.41;;;15.59;100.00
20077;BME280;12348;42.710;23.378;2022-09-29T01:21:01;94225.97;;;15.52;100.00
20077;BME280;12348;42.710;23.378;2022-09-29T01:23:56;94225.88;;;15.48;100.00
20077;BME280;12348;42.710;23.378;2022-09-29T01:26:50;94237.78;;;15.32;100.00
20077;BME280;12348;42.710;23.378;2022-09-29T01:30:02;94240.59;;;15.23;100.00
20077;BME280;12348;42.710;23.378;2022-09-29T01:32:51;94247.19;;;15.10;100.00
20077;BME280;12348;42.710;23.378;2022-09-29T01:35:25;94232.16;;;15.00;100.00
20077;BME280;12348;42.710;23.378;2022-09-29T01:38:02;94238.84;;;14.90;100.00
20077;BME280;12348;42.710;23.378;2022-09-29T01:40:37;94244.13;;;14.87;100.00
20077;BME280;12348;42.710;23.378;2022-09-29T01:43:08;94246.16;;;14.77;100.00
20077;BME280;12348;42.710;23.378;2022-09-29T01:45:40;94255.84;;;14.66;100.00
20077;BME280;12348;42.710;23.378;2022-09-29T01:48:15;94256.41;;;14.60;100.00
20077;BME280;12348;42.710;23.378;2022-09-29T01:50:46;94258.53;;;14.54;100.00
20077;BME280;12348;42.710;23.378;2022-09-29T01:53:19;94256.97;;;14.53;100.00
20077;BME280;12348;42.710;23.378;2022-09-29T01:55:51;94262.50;;;14.57;100.00
20077;BME280;12348;42.710;23.378;2022-09-29T01:58:23;94264.19;;;14.61;100.00
20077;BME280;12348;42.710;23.378;2022-09-29T02:00:56;94272.66;;;14.60;100.00
20077;BME280;12348;42.710;23.378;2022-09-29T02:03:28;94270.41;;;14.62;100.00
20077;BME280;12348;42.710;23.378;2022-09-29T02:05:58;94270.53;;;14.65;100.00
20077;BME280;12348;42.710;23.378;2022-09-29T02:08:29;94260.81;;;14.64;100.00
20077;BME280;12348;42.710;23.378;2022-09-29T02:11:00;94258.56;;;14.66;100.00
20077;BME280;12348;42.710;23.378;2022-09-29T02:13:30;94263.41;;;14.61;100.00
20077;BME280;12348;42.710;23.378;2022-09-29T02:15:58;94267.28;;;14.39;100.00
20077;BME280;12348;42.710;23.378;2022-09-29T02:18:29;94268.91;;;14.19;100.00
20077;BME280;12348;42.710;23.378;2022-09-29T02:20:58;94264.44;;;14.02;100.00
20077;BME280;12348;42.710;23.378;2022-09-29T02:23:24;94272.56;;;14.02;100.00
20077;BME280;12348;42.710;23.378;2022-09-29T02:25:52;94278.97;;;13.76;100.00
20077;BME280;12348;42.710;23.378;2022-09-29T02:28:21;94273.03;;;13.62;100.00
20077;BME280;12348;42.710;23.378;2022-09-29T02:30:48;94277.91;;;13.48;100.00
20077;BME280;12348;42.710;23.378;2022-09-29T02:33:17;94269.34;;;13.46;100.00
20077;BME280;12348;42.710;23.378;2022-09-29T02:35:53;94280.81;;;13.43;100.00
20077;BME280;12348;42.710;23.378;2022-09-29T02:38:25;94279.38;;;13.45;100.00
20077;BME280;12348;42.710;23.378;2022-09-29T02:41:02;94283.84;;;13.41;100.00
20077;BME280;12348;42.710;23.378;2022-09-29T02:43:51;94282.94;;;13.37;100.00
20077;BME280;12348;42.710;23.378;2022-09-29T02:46:39;94289.63;;;13.31;100.00
20077;BME280;12348;42.710;23.378;2022-09-29T02:49:19;94293.97;;;13.23;100.00
20077;BME280;12348;42.710;23.378;2022-09-29T02:51:54;94290.63;;;13.18;100.00
20077;BME280;12348;42.710;23.378;2022-09-29T02:54:46;94279.94;;;13.21;100.00
20077;BME280;12348;42.710;23.378;2022-09-29T02:57:19;94279.94;;;13.21;100.00
20077;BME280;12348;42.710;23.378;2022-09-29T02:59:55;94274.06;;;13.28;100.00
20077;BME280;12348;42.710;23.378;2022-09-29T03:02:26;94259.84;;;13.40;100.00
20077;BME280;12348;42.710;23.378;2022-09-29T03:04:53;94280.16;;;13.16;100.00
20077;BME280;12348;42.710;23.378;2022-09-29T03:07:21;94278.47;;;13.03;100.00
20077;BME280;12348;42.710;23.378;2022-09-29T03:09:48;94234.72;;;12.80;100.00
20077;BME280;12348;42.710;23.378;2022-09-29T03:12:15;94213.59;;;13.03;100.00
20077;BME280;12348;42.710;23.378;2022-09-29T03:14:42;94223.97;;;13.22;100.00
20077;BME280;12348;42.710;23.378;2022-09-29T03:17:09;94236.72;;;12.92;100.00
20077;BME280;12348;42.710;23.378;2022-09-29T03:19:36;94248.06;;;12.76;100.00
20077;BME280;12348;42.710;23.378;2022-09-29T03:22:03;94262.34;;;12.47;100.00
20077;BME280;12348;42.710;23.378;2022-09-29T03:24:31;94250.75;;;12.38;100.00
20077;BME280;12348;42.710;23.378;2022-09-29T03:26:57;94260.28;;;12.35;100.00
20077;BME280;12348;42.710;23.378;2022-09-29T03:29:24;94286.19;;;12.36;100.00
20077;BME280;12348;42.710;23.378;2022-09-29T03:31:51;94300.00;;;12.35;100.00
20077;BME280;12348;42.710;23.378;2022-09-29T03:34:18;94285.56;;;12.31;100.00
20077;BME280;12348;42.710;23.378;2022-09-29T03:36:45;94299.84;;;12.40;100.00
20077;BME280;12348;42.710;23.378;2022-09-29T03:39:12;94310.63;;;12.40;100.00
20077;BME280;12348;42.710;23.378;2022-09-29T03:41:40;94278.41;;;12.35;100.00
20077;BME280;12348;42.710;23.378;2022-09-29T03:44:07;94296.16;;;12.36;100.00
20077;BME280;12348;42.710;23.378;2022-09-29T03:46:36;94315.25;;;12.31;100.00
20077;BME280;12348;42.710;23.378;2022-09-29T03:49:02;94317.47;;;12.20;100.00
20077;BME280;12348;42.710;23.378;2022-09-29T03:51:29;94318.13;;;12.17;100.00
20077;BME280;12348;42.710;23.378;2022-09-29T03:53:56;94308.63;;;12.11;100.00
20077;BME280;12348;42.710;23.378;2022-09-29T03:56:23;94294.97;;;12.07;100.00
20077;BME280;12348;42.710;23.378;2022-09-29T03:58:51;94286.72;;;12.04;100.00
20077;BME280;12348;42.710;23.378;2022-09-29T04:01:18;94294.00;;;12.12;100.00
20077;BME280;12348;42.710;23.378;2022-09-29T04:03:44;94290.19;;;12.22;100.00
20077;BME280;12348;42.710;23.378;2022-09-29T04:06:11;94290.34;;;12.17;100.00
20077;BME280;12348;42.710;23.378;2022-09-29T04:08:38;94287.78;;;12.20;100.00
20077;BME280;12348;42.710;23.378;2022-09-29T04:11:05;94286.03;;;12.24;100.00
20077;BME280;12348;42.710;23.378;2022-09-29T04:13:32;94300.16;;;12.38;100.00
20077;BME280;12348;42.710;23.378;2022-09-29T04:16:02;94301.88;;;12.52;100.00
20077;BME280;12348;42.710;23.378;2022-09-29T04:18:29;94277.03;;;12.67;100.00
20077;BME280;12348;42.710;23.378;2022-09-29T04:20:56;94287.50;;;12.77;100.00
20077;BME280;12348;42.710;23.378;2022-09-29T04:23:25;94285.41;;;12.83;100.00
20077;BME280;12348;42.710;23.378;2022-09-29T04:25:51;94284.56;;;12.91;100.00
20077;BME280;12348;42.710;23.378;2022-09-29T04:28:18;94272.03;;;13.16;100.00
20077;BME280;12348;42.710;23.378;2022-09-29T04:30:45;94269.63;;;13.53;100.00
20077;BME280;12348;42.710;23.378;2022-09-29T04:33:15;94269.88;;;14.02;100.00
20077;BME280;12348;42.710;23.378;2022-09-29T04:35:42;94265.47;;;13.76;100.00
20077;BME280;12348;42.710;23.378;2022-09-29T04:38:09;94264.47;;;14.47;100.00
20077;BME280;12348;42.710;23.378;2022-09-29T04:40:36;94273.50;;;14.97;100.00
20077;BME280;12348;42.710;23.378;2022-09-29T04:43:03;94262.66;;;15.09;100.00
20077;BME280;12348;42.710;23.378;2022-09-29T04:45:30;94267.47;;;14.34;100.00
20077;BME280;12348;42.710;23.378;2022-09-29T04:47:57;94280.44;;;13.53;100.00
20077;BME280;12348;42.710;23.378;2022-09-29T04:50:26;94279.69;;;13.44;100.00
20077;BME280;12348;42.710;23.378;2022-09-29T04:52:55;94259.69;;;13.36;100.00
20077;BME280;12348;42.710;23.378;2022-09-29T04:55:22;94273.03;;;13.41;100.00
20077;BME280;12348;42.710;23.378;2022-09-29T04:57:49;94278.13;;;13.64;100.00
20077;BME280;12348;42.710;23.378;2022-09-29T05:00:16;94261.28;;;15.40;100.00
20077;BME280;12348;42.710;23.378;2022-09-29T05:02:43;94280.53;;;17.35;100.00
20077;BME280;12348;42.710;23.378;2022-09-29T05:05:10;94276.97;;;19.02;100.00
20077;BME280;12348;42.710;23.378;2022-09-29T05:07:39;94270.09;;;19.61;100.00
20077;BME280;12348;42.710;23.378;2022-09-29T05:10:07;94273.38;;;19.47;100.00
20077;BME280;12348;42.710;23.378;2022-09-29T05:12:34;94270.31;;;19.26;100.00
20077;BME280;12348;42.710;23.378;2022-09-29T05:15:01;94280.56;;;20.79;100.00
20077;BME280;12348;42.710;23.378;2022-09-29T05:17:29;94266.28;;;21.96;96.92
20077;BME280;12348;42.710;23.378;2022-09-29T05:19:56;94268.56;;;22.82;89.58
20077;BME280;12348;42.710;23.378;2022-09-29T05:22:22;94274.53;;;23.59;79.37
20077;BME280;12348;42.710;23.378;2022-09-29T05:24:52;94275.59;;;24.43;74.92
20077;BME280;12348;42.710;23.378;2022-09-29T05:27:19;94273.34;;;24.98;69.79
20077;BME280;12348;42.710;23.378;2022-09-29T05:29:46;94277.56;;;25.69;64.04
20077;BME280;12348;42.710;23.378;2022-09-29T05:32:13;94285.41;;;22.66;79.87
20077;BME280;12348;42.710;23.378;2022-09-29T05:34:40;94282.78;;;23.09;79.24
20077;BME280;12348;42.710;23.378;2022-09-29T05:37:06;94278.06;;;25.01;71.18
20077;BME280;12348;42.710;23.378;2022-09-29T05:39:34;94283.03;;;26.55;62.42
20077;BME280;12348;42.710;23.378;2022-09-29T05:42:03;94267.34;;;27.87;55.29
20077;BME280;12348;42.710;23.378;2022-09-29T05:44:30;94274.63;;;27.74;53.71
20077;BME280;12348;42.710;23.378;2022-09-29T05:46:58;94274.56;;;28.24;51.44
20077;BME280;12348;42.710;23.378;2022-09-29T05:49:24;94279.13;;;29.14;49.27
20077;BME280;12348;42.710;23.378;2022-09-29T05:51:51;94284.16;;;28.20;51.24
20077;BME280;12348;42.710;23.378;2022-09-29T05:54:18;94285.84;;;27.40;54.55
20077;BME280;12348;42.710;23.378;2022-09-29T05:56:45;94287.91;;;28.30;51.72
20077;BME280;12348;42.710;23.378;2022-09-29T05:59:13;94294.84;;;28.61;50.75
20077;BME280;12348;42.710;23.378;2022-09-29T06:01:40;94297.72;;;27.10;56.23
20077;BME280;12348;42.710;23.378;2022-09-29T06:04:07;94293.19;;;26.65;58.46
20077;BME280;12348;42.710;23.378;2022-09-29T06:06:34;94295.13;;;26.68;58.19
20077;BME280;12348;42.710;23.378;2022-09-29T06:09:05;94300.63;;;29.27;50.18
20077;BME280;12348;42.710;23.378;2022-09-29T06:11:32;94312.69;;;29.53;48.02
20077;BME280;12348;42.710;23.378;2022-09-29T06:14:01;94314.13;;;28.68;50.02
20077;BME280;12348;42.710;23.378;2022-09-29T06:16:31;94304.03;;;27.91;52.92
20077;BME280;12348;42.710;23.378;2022-09-29T06:18:58;94306.78;;;28.58;52.53
20077;BME280;12348;42.710;23.378;2022-09-29T06:21:26;94309.53;;;28.15;52.69
20077;BME280;12348;42.710;23.378;2022-09-29T06:23:54;94316.97;;;26.55;58.71
20077;BME280;12348;42.710;23.378;2022-09-29T06:26:23;94309.84;;;26.58;62.10
20077;BME280;12348;42.710;23.378;2022-09-29T06:28:50;94308.22;;;28.66;53.70
20077;BME280;12348;42.710;23.378;2022-09-29T06:31:20;94314.00;;;30.13;48.36
20077;BME280;12348;42.710;23.378;2022-09-29T06:33:48;94321.28;;;31.66;44.76
20077;BME280;12348;42.710;23.378;2022-09-29T06:36:17;94320.66;;;31.07;44.54
20077;BME280;12348;42.710;23.378;2022-09-29T06:39:03;94323.22;;;32.64;41.17
20077;BME280;12348;42.710;23.378;2022-09-29T06:41:29;94320.66;;;32.34;41.12
20077;BME280;12348;42.710;23.378;2022-09-29T06:43:56;94325.38;;;33.88;38.44
20077;BME280;12348;42.710;23.378;2022-09-29T06:46:23;94323.50;;;34.98;35.66
20077;BME280;12348;42.710;23.378;2022-09-29T06:48:53;94316.94;;;34.10;36.43
20077;BME280;12348;42.710;23.378;2022-09-29T06:51:20;94323.19;;;33.20;37.74
20077;BME280;12348;42.710;23.378;2022-09-29T06:53:47;94332.25;;;30.76;43.04
20077;BME280;12348;42.710;23.378;2022-09-29T06:56:15;94321.22;;;27.52;53.49
20077;BME280;12348;42.710;23.378;2022-09-29T06:58:43;94314.16;;;28.85;52.72
20077;BME280;12348;42.710;23.378;2022-09-29T07:01:10;94311.66;;;28.90;52.27
20077;BME280;12348;42.710;23.378;2022-09-29T07:03:37;94317.94;;;28.55;51.54
20077;BME280;12348;42.710;23.378;2022-09-29T07:06:07;94335.19;;;27.14;56.19
20077;BME280;12348;42.710;23.378;2022-09-29T07:08:34;94332.66;;;26.62;60.60
20077;BME280;12348;42.710;23.378;2022-09-29T07:11:03;94336.22;;;26.63;61.45
20077;BME280;12348;42.710;23.378;2022-09-29T07:13:30;94349.06;;;26.01;64.06
20077;BME280;12348;42.710;23.378;2022-09-29T07:16:02;94350.44;;;26.61;63.07
20077;BME280;12348;42.710;23.378;2022-09-29T07:18:30;94340.25;;;26.89;61.62
20077;BME280;12348;42.710;23.378;2022-09-29T07:20:57;94332.41;;;27.72;56.87
20077;BME280;12348;42.710;23.378;2022-09-29T07:23:26;94327.50;;;29.30;52.38
20077;BME280;12348;42.710;23.378;2022-09-29T07:25:53;94325.13;;;29.64;51.02
20077;BME280;12348;42.710;23.378;2022-09-29T07:28:19;94330.88;;;29.01;51.80
20077;BME280;12348;42.710;23.378;2022-09-29T07:30:46;94328.97;;;27.64;54.74
20077;BME280;12348;42.710;23.378;2022-09-29T07:33:13;94326.28;;;28.08;55.04
20077;BME280;12348;42.710;23.378;2022-09-29T07:35:39;94318.59;;;29.02;49.83
20077;BME280;12348;42.710;23.378;2022-09-29T07:38:06;94323.66;;;29.23;49.54
20077;BME280;12348;42.710;23.378;2022-09-29T07:40:34;94323.13;;;28.72;50.03
20077;BME280;12348;42.710;23.378;2022-09-29T07:43:02;94324.19;;;30.04;46.71
20077;BME280;12348;42.710;23.378;2022-09-29T07:45:28;94335.63;;;30.06;47.29
20077;BME280;12348;42.710;23.378;2022-09-29T07:47:56;94337.81;;;29.98;46.92
20077;BME280;12348;42.710;23.378;2022-09-29T07:50:22;94337.13;;;29.94;47.54
20077;BME280;12348;42.710;23.378;2022-09-29T07:52:49;94337.16;;;30.56;47.13
20077;BME280;12348;42.710;23.378;2022-09-29T07:55:17;94336.63;;;30.77;46.62
20077;BME280;12348;42.710;23.378;2022-09-29T07:58:04;94345.81;;;29.96;49.18
20077;BME280;12348;42.710;23.378;2022-09-29T08:00:31;94345.72;;;28.27;53.56
20077;BME280;12348;42.710;23.378;2022-09-29T08:02:59;94338.28;;;29.08;52.47
20077;BME280;12348;42.710;23.378;2022-09-29T08:05:29;94340.69;;;29.94;48.12
20077;BME280;12348;42.710;23.378;2022-09-29T08:07:58;94344.16;;;28.70;50.70
20077;BME280;12348;42.710;23.378;2022-09-29T08:10:25;94342.94;;;28.27;52.05
20077;BME280;12348;42.710;23.378;2022-09-29T08:12:52;94343.44;;;28.86;52.94
20077;BME280;12348;42.710;23.378;2022-09-29T08:15:21;94363.78;;;29.19;51.21
20077;BME280;12348;42.710;23.378;2022-09-29T08:17:51;94364.41;;;29.27;51.32
20077;BME280;12348;42.710;23.378;2022-09-29T08:20:19;94359.22;;;28.89;52.65
20077;BME280;12348;42.710;23.378;2022-09-29T08:22:45;94361.75;;;29.76;48.37
20077;BME280;12348;42.710;23.378;2022-09-29T08:25:13;94364.31;;;28.03;53.45
20077;BME280;12348;42.710;23.378;2022-09-29T08:27:40;94350.69;;;29.39;49.45
20077;BME280;12348;42.710;23.378;2022-09-29T08:30:08;94361.09;;;28.75;51.76
20077;BME280;12348;42.710;23.378;2022-09-29T08:32:37;94361.38;;;28.14;54.44
20077;BME280;12348;42.710;23.378;2022-09-29T08:35:05;94363.25;;;29.24;50.90
20077;BME280;12348;42.710;23.378;2022-09-29T08:37:32;94369.16;;;30.15;47.55
20077;BME280;12348;42.710;23.378;2022-09-29T08:39:59;94373.38;;;30.52;45.02
20077;BME280;12348;42.710;23.378;2022-09-29T08:42:34;94374.19;;;28.51;50.41
20077;BME280;12348;42.710;23.378;2022-09-29T08:45:12;94359.13;;;28.52;51.12
20077;BME280;12348;42.710;23.378;2022-09-29T08:47:44;94364.13;;;27.91;52.27
20077;BME280;12348;42.710;23.378;2022-09-29T08:50:16;94364.44;;;29.63;47.64
20077;BME280;12348;42.710;23.378;2022-09-29T08:52:52;94369.28;;;31.57;42.21
20077;BME280;12348;42.710;23.378;2022-09-29T08:55:24;94368.44;;;33.68;35.90
20077;BME280;12348;42.710;23.378;2022-09-29T08:57:55;94367.31;;;33.97;34.64
20077;BME280;12348;42.710;23.378;2022-09-29T09:00:29;94367.16;;;33.60;34.71
20077;BME280;12348;42.710;23.378;2022-09-29T09:03:14;94362.44;;;34.10;33.75
20077;BME280;12348;42.710;23.378;2022-09-29T09:08:54;94370.00;;;31.86;37.00
20077;BME280;12348;42.710;23.378;2022-09-29T09:11:40;94364.63;;;30.83;37.41
20077;BME280;12348;42.710;23.378;2022-09-29T09:14:21;94362.94;;;31.14;37.46
20077;BME280;12348;42.710;23.378;2022-09-29T09:17:02;94353.13;;;32.16;34.94
20077;BME280;12348;42.710;23.378;2022-09-29T09:19:56;94357.97;;;32.37;34.96
20077;BME280;12348;42.710;23.378;2022-09-29T09:22:34;94360.56;;;33.23;34.93
20077;BME280;12348;42.710;23.378;2022-09-29T09:25:13;94350.06;;;34.48;32.41
20077;BME280;12348;42.710;23.378;2022-09-29T09:27:47;94349.94;;;35.16;31.66
20077;BME280;12348;42.710;23.378;2022-09-29T09:30:16;94350.56;;;36.23;30.29
20077;BME280;12348;42.710;23.378;2022-09-29T09:32:47;94361.44;;;36.54;28.96
20077;BME280;12348;42.710;23.378;2022-09-29T09:35:26;94360.25;;;36.13;27.83
20077;BME280;12348;42.710;23.378;2022-09-29T09:37:58;94356.56;;;34.36;30.42
20077;BME280;12348;42.710;23.378;2022-09-29T09:40:27;94359.66;;;32.47;33.11
20077;BME280;12348;42.710;23.378;2022-09-29T09:42:59;94359.06;;;31.12;36.59
20077;BME280;12348;42.710;23.378;2022-09-29T09:45:31;94349.69;;;31.73;36.69
20077;BME280;12348;42.710;23.378;2022-09-29T09:48:02;94356.09;;;32.47;34.27
20077;BME280;12348;42.710;23.378;2022-09-29T09:50:35;94353.75;;;33.77;32.51
20077;BME280;12348;42.710;23.378;2022-09-29T09:53:11;94360.66;;;32.53;33.25
20077;BME280;12348;42.710;23.378;2022-09-29T09:55:40;94362.59;;;31.42;35.18
20077;BME280;12348;42.710;23.378;2022-09-29T09:58:31;94358.19;;;31.28;34.82
20077;BME280;12348;42.710;23.378;2022-09-29T10:01:04;94353.25;;;29.83;36.75
20077;BME280;12348;42.710;23.378;2022-09-29T10:03:31;94352.69;;;28.79;38.86
20077;BME280;12348;42.710;23.378;2022-09-29T10:09:24;94359.25;;;27.17;42.40
20077;BME280;12348;42.710;23.378;2022-09-29T10:11:51;94361.34;;;28.61;40.66
20077;BME280;12348;42.710;23.378;2022-09-29T10:14:21;94355.16;;;30.80;36.36
20077;BME280;12348;42.710;23.378;2022-09-29T10:16:53;94352.97;;;32.32;34.64
20077;BME280;12348;42.710;23.378;2022-09-29T10:19:22;94348.22;;;33.33;32.26
20077;BME280;12348;42.710;23.378;2022-09-29T10:21:49;94350.22;;;33.01;32.76
20077;BME280;12348;42.710;23.378;2022-09-29T10:24:22;94338.84;;;32.14;32.93
20077;BME280;12348;42.710;23.378;2022-09-29T10:26:52;94348.13;;;31.05;33.98
20077;BME280;12348;42.710;23.378;2022-09-29T10:29:24;94349.19;;;30.65;35.01
20077;BME280;12348;42.710;23.378;2022-09-29T10:32:12;94339.91;;;31.01;34.28
20077;BME280;12348;42.710;23.378;2022-09-29T10:34:41;94341.81;;;31.17;34.07
20077;BME280;12348;42.710;23.378;2022-09-29T10:37:19;94343.22;;;30.22;35.15
20077;BME280;12348;42.710;23.378;2022-09-29T10:39:49;94344.88;;;27.84;37.93
20077;BME280;12348;42.710;23.378;2022-09-29T10:42:21;94351.25;;;27.26;40.24
20077;BME280;12348;42.710;23.378;2022-09-29T10:44:53;94343.16;;;25.43;44.03
20077;BME280;12348;42.710;23.378;2022-09-29T10:47:21;94348.47;;;25.12;46.87
20077;BME280;12348;42.710;23.378;2022-09-29T10:50:06;94354.81;;;25.65;45.89
20077;BME280;12348;42.710;23.378;2022-09-29T10:52:36;94346.22;;;25.56;45.63
20077;BME280;12348;42.710;23.378;2022-09-29T10:55:04;94340.09;;;25.30;46.77
20077;BME280;12348;42.710;23.378;2022-09-29T10:57:33;94351.13;;;25.90;45.44
20077;BME280;12348;42.710;23.378;2022-09-29T11:00:02;94344.03;;;25.33;47.00
20077;BME280;12348;42.710;23.378;2022-09-29T11:02:33;94339.03;;;26.59;44.73
20077;BME280;12348;42.710;23.378;2022-09-29T11:05:03;94334.94;;;27.59;42.50
20077;BME280;12348;42.710;23.378;2022-09-29T11:07:31;94334.31;;;28.45;41.40
20077;BME280;12348;42.710;23.378;2022-09-29T11:09:59;94329.41;;;29.33;38.69
20077;BME280;12348;42.710;23.378;2022-09-29T11:12:29;94323.72;;;29.56;36.63
20077;BME280;12348;42.710;23.378;2022-09-29T11:14:59;94328.41;;;28.23;37.54
20077;BME280;12348;42.710;23.378;2022-09-29T11:17:28;94312.53;;;29.07;37.55
20077;BME280;12348;42.710;23.378;2022-09-29T11:19:57;94319.19;;;29.30;37.00
20077;BME280;12348;42.710;23.378;2022-09-29T11:22:53;94319.16;;;29.13;36.56
20077;BME280;12348;42.710;23.378;2022-09-29T11:25:52;94311.72;;;29.27;37.24
20077;BME280;12348;42.710;23.378;2022-09-29T11:28:41;94317.31;;;28.00;38.56
20077;BME280;12348;42.710;23.378;2022-09-29T11:31:26;94314.81;;;28.29;39.28
20077;BME280;12348;42.710;23.378;2022-09-29T11:34:10;94322.72;;;29.30;37.24
20077;BME280;12348;42.710;23.378;2022-09-29T11:36:44;94311.94;;;29.52;36.97
20077;BME280;12348;42.710;23.378;2022-09-29T11:39:27;94315.34;;;27.50;40.30
20077;BME280;12348;42.710;23.378;2022-09-29T11:42:05;94306.63;;;27.78;40.32
20077;BME280;12348;42.710;23.378;2022-09-29T11:44:50;94305.28;;;28.10;39.88
20077;BME280;12348;42.710;23.378;2022-09-29T11:47:32;94295.84;;;28.91;38.08
20077;BME280;12348;42.710;23.378;2022-09-29T11:50:20;94315.69;;;29.09;39.06
20077;BME280;12348;42.710;23.378;2022-09-29T11:52:59;94310.75;;;28.77;38.31
20077;BME280;12348;42.710;23.378;2022-09-29T11:55:35;94306.56;;;28.49;38.26
20077;BME280;12348;42.710;23.378;2022-09-29T11:58:18;94300.19;;;28.28;39.27
20077;BME280;12348;42.710;23.378;2022-09-29T12:00:59;94304.22;;;27.53;39.86
20077;BME280;12348;42.710;23.378;2022-09-29T12:03:38;94300.28;;;27.27;41.73
20077;BME280;12348;42.710;23.378;2022-09-29T12:06:38;94308.38;;;26.80;41.50
20077;BME280;12348;42.710;23.378;2022-09-29T12:09:23;94315.47;;;26.44;43.05
20077;BME280;12348;42.710;23.378;2022-09-29T12:12:05;94313.94;;;26.43;42.97
20077;BME280;12348;42.710;23.378;2022-09-29T12:14:38;94314.13;;;26.25;44.42
20077;BME280;12348;42.710;23.378;2022-09-29T12:17:11;94311.91;;;26.09;44.00
20077;BME280;12348;42.710;23.378;2022-09-29T12:19:42;94303.69;;;26.02;44.47
20077;BME280;12348;42.710;23.378;2022-09-29T12:22:14;94297.31;;;26.12;44.69
20077;BME280;12348;42.710;23.378;2022-09-29T12:24:45;94303.91;;;26.22;45.10
20077;BME280;12348;42.710;23.378;2022-09-29T12:27:18;94295.81;;;26.42;44.85
20077;BME280;12348;42.710;23.378;2022-09-29T12:29:51;94298.72;;;25.86;46.85
20077;BME280;12348;42.710;23.378;2022-09-29T12:32:24;94301.56;;;25.75;47.20
20077;BME280;12348;42.710;23.378;2022-09-29T12:34:57;94313.19;;;26.01;46.31
20077;BME280;12348;42.710;23.378;2022-09-29T12:37:30;94301.44;;;25.93;46.44
20077;BME280;12348;42.710;23.378;2022-09-29T12:40:04;94307.16;;;26.09;46.37
20077;BME280;12348;42.710;23.378;2022-09-29T12:42:56;94304.34;;;26.17;45.32
20077;BME280;12348;42.710;23.378;2022-09-29T12:45:29;94299.72;;;26.44;45.43
20077;BME280;12348;42.710;23.378;2022-09-29T12:48:05;94300.97;;;27.04;45.37
20077;BME280;12348;42.710;23.378;2022-09-29T12:50:43;94295.88;;;26.99;42.20
20077;BME280;12348;42.710;23.378;2022-09-29T12:53:16;94290.78;;;26.33;42.51
20077;BME280;12348;42.710;23.378;2022-09-29T12:55:49;94305.63;;;26.08;43.72
20077;BME280;12348;42.710;23.378;2022-09-29T12:58:22;94308.00;;;26.06;43.95
20077;BME280;12348;42.710;23.378;2022-09-29T13:00:57;94305.00;;;25.90;44.24
20077;BME280;12348;42.710;23.378;2022-09-29T13:04:08;94305.25;;;26.03;44.74
20077;BME280;12348;42.710;23.378;2022-09-29T13:07:15;94304.69;;;26.22;44.81
20077;BME280;12348;42.710;23.378;2022-09-29T13:10:03;94310.19;;;26.26;44.62
20077;BME280;12348;42.710;23.378;2022-09-29T13:12:54;94308.56;;;26.28;44.64
20077;BME280;12348;42.710;23.378;2022-09-29T13:15:44;94302.25;;;26.28;45.36
20077;BME280;12348;42.710;23.378;2022-09-29T13:18:27;94296.28;;;25.95;46.00